sensor_id;sensor_type;location;lat;lon;timestamp;temperature;humidity
20985;DHT22;10651;47.552;7.606;2024-03-06T07:03:58;8.20;99.90
20985;DHT22;10651;47.552;7.606;2024-03-06T07:06:24;8.20;99.90
20985;DHT22;10651;47.552;7.606;2024-03-06T07:08:53;8.20;99.90
20985;DHT22;10651;47.552;7.606;2024-03-06T07:11:22;8.20;99.90
20985;DHT22;10651;47.552;7.606;2024-03-06T07:13:47;8.30;99.90
20985;DHT22;10651;47.552;7.606;2024-03-06T07:16:13;8.30;99.90
20985;DHT22;10651;47.552;7.606;2024-03-06T07:18:40;8.30;99.90
20985;DHT22;10651;47.552;7.606;2024-03-06T07:21:15;8.30;99.90
20985;DHT22;10651;47.552;7.606;2024-03-06T07:23:40;8.30;99.90
20985;DHT22;10651;47.552;7.606;2024-03-06T07:26:06;8.30;99.90
20985;DHT22;10651;47.552;7.606;2024-03-06T07:28:35;8.30;99.90
20985;DHT22;10651;47.552;7.606;2024-03-06T07:31:10;8.20;99.90
20985;DHT22;10651;47.552;7.606;2024-03-06T07:33:41;8.20;99.90
20985;DHT22;10651;47.552;7.606;2024-03-06T07:36:07;8.20;99.90
20985;DHT22;10651;47.552;7.606;2024-03-06T07:38:33;8.20;99.90
20985;DHT22;10651;47.552;7.606;2024-03-06T07:40:59;8.10;99.90
20985;DHT22;10651;47.552;7.606;2024-03-06T07:43:25;8.20;99.90
20985;DHT22;10651;47.552;7.606;2024-03-06T07:45:52;8.20;99.90
20985;DHT22;10651;47.552;7.606;2024-03-06T07:48:24;8.10;99.90
20985;DHT22;10651;47.552;7.606;2024-03-06T07:51:01;8.20;99.90
20985;DHT22;10651;47.552;7.606;2024-03-06T07:53:39;8.10;99.90
20985;DHT22;10651;47.552;7.606;2024-03-06T07:56:20;8.10;99.90
20985;DHT22;10651;47.552;7.606;2024-03-06T07:58:46;8.20;99.90
20985;DHT22;10651;47.552;7.606;2024-03-06T08:01:23;8.30;99.90
20985;DHT22;10651;47.552;7.606;2024-03-06T08:03:52;8.30;99.90
20985;DHT22;10651;47.552;7.606;2024-03-06T08:06:19;8.20;99.90
20985;DHT22;10651;47.552;7.606;2024-03-06T08:08:58;8.30;99.90
20985;DHT22;10651;47.552;7.606;2024-03-06T08:11:29;8.30;99.90
20985;DHT22;10651;47.552;7.606;2024-03-06T08:14:11;8.30;99.90
20985;DHT22;10651;47.552;7.606;2024-03-06T08:16:40;8.30;99.90
20985;DHT22;10651;47.552;7.606;2024-03-06T08:19:11;8.30;99.90
20985;DHT22;10651;47.552;7.606;2024-03-06T08:21:46;8.40;99.90
20985;DHT22;10651;47.552;7.606;2024-03-06T08:24:16;8.50;99.90
20985;DHT22;10651;47.552;7.606;2024-03-06T08:26:56;8.40;99.90
20985;DHT22;10651;47.552;7.606;2024-03-06T08:30:03;8.50;99.90
20985;DHT22;10651;47.552;7.606;2024-03-06T08:32:35;8.50;99.90
20985;DHT22;10651;47.552;7.606;2024-03-06T08:35:17;8.50;99.90
20985;DHT22;10651;47.552;7.606;2024-03-06T08:38:14;8.50;99.90
20985;DHT22;10651;47.552;7.606;2024-03-06T08:40:54;8.60;99.90
20985;DHT22;10651;47.552;7.606;2024-03-06T08:43:20;8.50;99.90
20985;DHT22;10651;47.552;7.606;2024-03-06T08:46:04;8.50;99.90
20985;DHT22;10651;47.552;7.606;2024-03-06T08:48:30;8.50;99.90
20985;DHT22;10651;47.552;7.606;2024-03-06T08:50:59;8.50;99.90
20985;DHT22;10651;47.552;7.606;2024-03-06T08:53:24;8.40;99.90
20985;DHT22;10651;47.552;7.606;2024-03-06T08:55:53;8.50;99.90
20985;DHT22;10651;47.552;7.606;2024-03-06T08:58:22;8.50;99.90
20985;DHT22;10651;47.552;7.606;2024-03-06T09:00:50;8.50;99.90
20985;DHT22;10651;47.552;7.606;2024-03-06T09:03:19;8.60;99.90
20985;DHT22;10651;47.552;7.606;2024-03-06T09:05:45;8.60;99.90
20985;DHT22;10651;47.552;7.606;2024-03-06T09:08:17;8.70;99.90
20985;DHT22;10651;47.552;7.606;2024-03-06T09:10:47;8.70;99.90
20985;DHT22;10651;47.552;7.606;2024-03-06T09:13:16;8.80;99.90
20985;DHT22;10651;47.552;7.606;2024-03-06T09:15:42;8.90;99.90
20985;DHT22;10651;47.552;7.606;2024-03-06T09:18:16;9.00;99.90
20985;DHT22;10651;47.552;7.606;2024-03-06T09:20:59;9.10;99.90
20985;DHT22;10651;47.552;7.606;2024-03-06T09:23:33;9.10;99.90
20985;DHT22;10651;47.552;7.606;2024-03-06T09:25:59;9.20;99.90
20985;DHT22;10651;47.552;7.606;2024-03-06T09:28:32;9.20;99.90
20985;DHT22;10651;47.552;7.606;2024-03-06T09:30:58;9.20;99.90
20985;DHT22;10651;47.552;7.606;2024-03-06T09:33:29;9.30;99.90
20985;DHT22;10651;47.552;7.606;2024-03-06T09:36:05;9.30;99.90
20985;DHT22;10651;47.552;7.606;2024-03-06T09:38:37;9.30;99.90
20985;DHT22;10651;47.552;7.606;2024-03-06T09:41:05;9.40;99.90
20985;DHT22;10651;47.552;7.606;2024-03-06T09:43:40;9.50;99.90
20985;DHT22;10651;47.552;7.606;2024-03-06T09:46:26;9.60;99.90
20985;DHT22;10651;47.552;7.606;2024-03-06T09:48:55;9.60;99.90
20985;DHT22;10651;47.552;7.606;2024-03-06T09:51:45;9.40;99.90
20985;DHT22;10651;47.552;7.606;2024-03-06T09:54:18;9.40;99.90
20985;DHT22;10651;47.552;7.606;2024-03-06T10:00:12;9.50;99.90
20985;DHT22;10651;47.552;7.606;2024-03-06T10:03:09;9.70;99.90
20985;DHT22;10651;47.552;7.606;2024-03-06T10:05:45;9.70;99.90
20985;DHT22;10651;47.552;7.606;2024-03-06T10:11:35;9.70;99.90
20985;DHT22;10651;47.552;7.606;2024-03-06T10:14:51;9.70;99.90
20985;DHT22;10651;47.552;7.606;2024-03-06T10:17:46;9.80;99.90
20985;DHT22;10651;47.552;7.606;2024-03-06T10:20:52;9.90;99.90
20985;DHT22;10651;47.552;7.606;2024-03-06T10:23:29;10.00;99.90
20985;DHT22;10651;47.552;7.606;2024-03-06T10:32:35;10.20;99.90
20985;DHT22;10651;47.552;7.606;2024-03-06T10:35:28;10.40;99.90
20985;DHT22;10651;47.552;7.606;2024-03-06T10:38:26;10.40;99.90
20985;DHT22;10651;47.552;7.606;2024-03-06T10:41:57;10.40;99.90
20985;DHT22;10651;47.552;7.606;2024-03-06T10:44:56;10.10;99.90
20985;DHT22;10651;47.552;7.606;2024-03-06T10:47:36;10.00;99.90
20985;DHT22;10651;47.552;7.606;2024-03-06T10:53:55;10.00;99.90
20985;DHT22;10651;47.552;7.606;2024-03-06T11:00:25;9.70;99.90
20985;DHT22;10651;47.552;7.606;2024-03-06T11:02:58;9.70;99.90
20985;DHT22;10651;47.552;7.606;2024-03-06T11:05:57;9.60;99.90
20985;DHT22;10651;47.552;7.606;2024-03-06T11:09:23;9.40;99.90
20985;DHT22;10651;47.552;7.606;2024-03-06T11:15:37;9.40;99.90
20985;DHT22;10651;47.552;7.606;2024-03-06T11:21:53;9.60;99.90
20985;DHT22;10651;47.552;7.606;2024-03-06T11:25:06;9.60;99.90
20985;DHT22;10651;47.552;7.606;2024-03-06T11:41:09;10.20;99.90
20985;DHT22;10651;47.552;7.606;2024-03-06T11:43:42;10.60;99.90
20985;DHT22;10651;47.552;7.606;2024-03-06T11:46:09;11.10;99.90
20985;DHT22;10651;47.552;7.606;2024-03-06T11:48:37;11.10;99.90
20985;DHT22;10651;47.552;7.606;2024-03-06T11:51:03;11.20;99.90
20985;DHT22;10651;47.552;7.606;2024-03-06T11:53:35;11.70;99.90
20985;DHT22;10651;47.552;7.606;2024-03-06T11:56:43;11.90;99.90
20985;DHT22;10651;47.552;7.606;2024-03-06T12:30:57;12.50;99.90
20985;DHT22;10651;47.552;7.606;2024-03-06T12:33:27;11.90;99.90
20985;DHT22;10651;47.552;7.606;2024-03-06T12:36:08;11.60;99.90
20985;DHT22;10651;47.552;7.606;2024-03-06T12:38:37;11.40;99.90
20985;DHT22;10651;47.552;7.606;2024-03-06T12:41:05;11.20;99.90
20985;DHT22;10651;47.552;7.606;2024-03-06T12:43:31;10.80;99.90
20985;DHT22;10651;47.552;7.606;2024-03-06T12:45:59;10.70;99.90
20985;DHT22;10651;47.552;7.606;2024-03-06T12:48:25;10.40;99.90
20985;DHT22;10651;47.552;7.606;2024-03-06T12:50:55;10.30;99.90
20985;DHT22;10651;47.552;7.606;2024-03-06T12:53:22;10.00;99.90
20985;DHT22;10651;47.552;7.606;2024-03-06T12:55:51;9.80;99.90
20985;DHT22;10651;47.552;7.606;2024-03-06T12:58:23;9.80;99.90
20985;DHT22;10651;47.552;7.606;2024-03-06T13:00:54;10.00;99.90
20985;DHT22;10651;47.552;7.606;2024-03-06T13:03:21;10.10;99.90
20985;DHT22;10651;47.552;7.606;2024-03-06T13:05:49;10.20;99.90
20985;DHT22;10651;47.552;7.606;2024-03-06T13:08:18;10.20;99.90
20985;DHT22;10651;47.552;7.606;2024-03-06T13:10:46;10.30;99.90
20985;DHT22;10651;47.552;7.606;2024-03-06T13:13:30;10.40;99.90
20985;DHT22;10651;47.552;7.606;2024-03-06T13:16:05;10.50;99.90
20985;DHT22;10651;47.552;7.606;2024-03-06T13:18:39;10.60;99.90
20985;DHT22;10651;47.552;7.606;2024-03-06T13:21:10;10.60;99.90
20985;DHT22;10651;47.552;7.606;2024-03-06T13:23:42;10.80;99.90
20985;DHT22;10651;47.552;7.606;2024-03-06T13:26:10;10.80;99.90
20985;DHT22;10651;47.552;7.606;2024-03-06T13:28:58;10.60;99.90
20985;DHT22;10651;47.552;7.606;2024-03-06T13:31:25;10.80;99.90
20985;DHT22;10651;47.552;7.606;2024-03-06T13:33:53;10.70;99.90
20985;DHT22;10651;47.552;7.606;2024-03-06T13:36:21;10.90;99.90
20985;DHT22;10651;47.552;7.606;2024-03-06T13:38:50;11.00;99.90
20985;DHT22;10651;47.552;7.606;2024-03-06T13:41:20;11.00;99.90
20985;DHT22;10651;47.552;7.606;2024-03-06T13:43:51;11.10;99.90
20985;DHT22;10651;47.552;7.606;2024-03-06T13:46:20;11.00;99.90
20985;DHT22;10651;47.552;7.606;2024-03-06T13:48:48;11.10;99.90
20985;DHT22;10651;47.552;7.606;2024-03-06T13:51:19;11.10;99.90
20985;DHT22;10651;47.552;7.606;2024-03-06T13:53:45;11.00;99.90
20985;DHT22;10651;47.552;7.606;2024-03-06T13:56:11;10.90;99.90
20985;DHT22;10651;47.552;7.606;2024-03-06T13:58:38;11.00;99.90
20985;DHT22;10651;47.552;7.606;2024-03-06T14:01:04;11.10;99.90
20985;DHT22;10651;47.552;7.606;2024-03-06T14:03:36;11.20;99.90
20985;DHT22;10651;47.552;7.606;2024-03-06T14:06:13;11.30;99.90
20985;DHT22;10651;47.552;7.606;2024-03-06T14:08:45;11.30;99.90
20985;DHT22;10651;47.552;7.606;2024-03-06T14:11:11;11.20;99.90
20985;DHT22;10651;47.552;7.606;2024-03-06T14:13:37;11.10;99.90
20985;DHT22;10651;47.552;7.606;2024-03-06T14:16:03;11.10;99.90
20985;DHT22;10651;47.552;7.606;2024-03-06T14:18:32;11.10;99.90
20985;DHT22;10651;47.552;7.606;2024-03-06T14:20:57;11.20;99.90
20985;DHT22;10651;47.552;7.606;2024-03-06T14:23:23;11.10;99.90
20985;DHT22;10651;47.552;7.606;2024-03-06T14:25:49;11.10;99.90
20985;DHT22;10651;47.552;7.606;2024-03-06T14:28:15;11.00;99.90
20985;DHT22;10651;47.552;7.606;2024-03-06T14:30:41;10.90;99.90
20985;DHT22;10651;47.552;7.606;2024-03-06T14:33:07;10.80;99.90
20985;DHT22;10651;47.552;7.606;2024-03-06T14:35:33;10.70;99.90
20985;DHT22;10651;47.552;7.606;2024-03-06T14:38:02;10.60;99.90
20985;DHT22;10651;47.552;7.606;2024-03-06T14:40:28;10.70;99.90
20985;DHT22;10651;47.552;7.606;2024-03-06T14:42:56;10.60;99.90
20985;DHT22;10651;47.552;7.606;2024-03-06T14:45:22;10.60;99.90
20985;DHT22;10651;47.552;7.606;2024-03-06T14:47:48;10.60;99.90
20985;DHT22;10651;47.552;7.606;2024-03-06T14:50:14;10.50;99.90
20985;DHT22;10651;47.552;7.606;2024-03-06T14:52:40;10.60;99.90
20985;DHT22;10651;47.552;7.606;2024-03-06T14:55:06;10.60;99.90
20985;DHT22;10651;47.552;7.606;2024-03-06T14:57:40;10.50;99.90
20985;DHT22;10651;47.552;7.606;2024-03-06T15:00:41;10.50;99.90
20985;DHT22;10651;47.552;7.606;2024-03-06T15:03:22;10.30;99.90
20985;DHT22;10651;47.552;7.606;2024-03-06T15:06:00;10.30;99.90
20985;DHT22;10651;47.552;7.606;2024-03-06T15:12:03;10.20;99.90
20985;DHT22;10651;47.552;7.606;2024-03-06T15:14:49;10.30;99.90
20985;DHT22;10651;47.552;7.606;2024-03-06T15:27:28;10.20;99.90
20985;DHT22;10651;47.552;7.606;2024-03-06T15:30:36;10.00;99.90
20985;DHT22;10651;47.552;7.606;2024-03-06T15:33:44;10.00;99.90
20985;DHT22;10651;47.552;7.606;2024-03-06T15:36:26;10.00;99.90
20985;DHT22;10651;47.552;7.606;2024-03-06T15:39:05;10.00;99.90
20985;DHT22;10651;47.552;7.606;2024-03-06T15:42:32;10.00;99.90
20985;DHT22;10651;47.552;7.606;2024-03-06T15:58:39;10.00;99.90
20985;DHT22;10651;47.552;7.606;2024-03-06T16:01:05;9.90;99.90
20985;DHT22;10651;47.552;7.606;2024-03-06T16:03:37;9.80;99.90
20985;DHT22;10651;47.552;7.606;2024-03-06T16:06:19;9.80;99.90
20985;DHT22;10651;47.552;7.606;2024-03-06T16:12:35;9.80;99.90
20985;DHT22;10651;47.552;7.606;2024-03-06T16:15:01;9.60;99.90
20985;DHT22;10651;47.552;7.606;2024-03-06T16:17:33;9.60;99.90
20985;DHT22;10651;47.552;7.606;2024-03-06T16:20:04;9.30;99.90
20985;DHT22;10651;47.552;7.606;2024-03-06T16:25:32;8.90;99.90
20985;DHT22;10651;47.552;7.606;2024-03-06T16:28:13;9.30;99.90
20985;DHT22;10651;47.552;7.606;2024-03-06T16:41:33;8.60;99.90
20985;DHT22;10651;47.552;7.606;2024-03-06T16:44:29;8.50;99.90
20985;DHT22;10651;47.552;7.606;2024-03-06T16:50:30;8.50;99.90
20985;DHT22;10651;47.552;7.606;2024-03-06T16:56:25;8.50;99.90
20985;DHT22;10651;47.552;7.606;2024-03-06T17:02:42;8.50;99.90
20985;DHT22;10651;47.552;7.606;2024-03-06T17:05:27;8.50;99.90
20985;DHT22;10651;47.552;7.606;2024-03-06T17:08:09;8.50;99.90
20985;DHT22;10651;47.552;7.606;2024-03-06T17:10:40;8.60;99.90
20985;DHT22;10651;47.552;7.606;2024-03-06T17:13:06;8.50;99.90
20985;DHT22;10651;47.552;7.606;2024-03-06T17:15:32;8.50;99.90
20985;DHT22;10651;47.552;7.606;2024-03-06T17:17:58;8.50;99.90
20985;DHT22;10651;47.552;7.606;2024-03-06T17:20:24;8.50;99.90
20985;DHT22;10651;47.552;7.606;2024-03-06T17:22:50;8.50;99.90
20985;DHT22;10651;47.552;7.606;2024-03-06T17:25:23;8.70;99.90
20985;DHT22;10651;47.552;7.606;2024-03-06T17:27:49;8.70;99.90
20985;DHT22;10651;47.552;7.606;2024-03-06T17:30:18;8.70;99.90
20985;DHT22;10651;47.552;7.606;2024-03-06T17:32:44;8.70;99.90
20985;DHT22;10651;47.552;7.606;2024-03-06T17:35:10;8.70;99.90
20985;DHT22;10651;47.552;7.606;2024-03-06T17:37:36;8.70;99.90
20985;DHT22;10651;47.552;7.606;2024-03-06T17:40:02;8.60;99.90
20985;DHT22;10651;47.552;7.606;2024-03-06T17:42:33;8.70;99.90
20985;DHT22;10651;47.552;7.606;2024-03-06T17:45:01;8.60;99.90
20985;DHT22;10651;47.552;7.606;2024-03-06T17:47:27;8.60;99.90
20985;DHT22;10651;47.552;7.606;2024-03-06T17:49:59;8.60;99.90
20985;DHT22;10651;47.552;7.606;2024-03-06T17:52:24;8.60;99.90
20985;DHT22;10651;47.552;7.606;2024-03-06T17:54:53;8.60;99.90
20985;DHT22;10651;47.552;7.606;2024-03-06T17:57:27;8.50;99.90
20985;DHT22;10651;47.552;7.606;2024-03-06T17:59:55;8.50;99.90
20985;DHT22;10651;47.552;7.606;2024-03-06T18:02:29;8.50;99.90
20985;DHT22;10651;47.552;7.606;2024-03-06T18:05:07;8.50;99.90
20985;DHT22;10651;47.552;7.606;2024-03-06T18:08:09;8.50;99.90
20985;DHT22;10651;47.552;7.606;2024-03-06T18:21:13;8.50;99.90
20985;DHT22;10651;47.552;7.606;2024-03-06T18:27:25;8.50;99.90
20985;DHT22;10651;47.552;7.606;2024-03-06T18:30:03;8.50;99.90
20985;DHT22;10651;47.552;7.606;2024-03-06T18:32:35;8.50;99.90
20985;DHT22;10651;47.552;7.606;2024-03-06T18:35:01;8.50;99.90
20985;DHT22;10651;47.552;7.606;2024-03-06T18:37:33;8.50;99.90
20985;DHT22;10651;47.552;7.606;2024-03-06T18:39:59;8.50;99.90
20985;DHT22;10651;47.552;7.606;2024-03-06T18:42:33;8.50;99.90
20985;DHT22;10651;47.552;7.606;2024-03-06T18:45:02;8.50;99.90
20985;DHT22;10651;47.552;7.606;2024-03-06T18:47:28;8.60;99.90
20985;DHT22;10651;47.552;7.606;2024-03-06T18:49:54;8.50;99.90
20985;DHT22;10651;47.552;7.606;2024-03-06T18:52:19;8.50;99.90
20985;DHT22;10651;47.552;7.606;2024-03-06T18:54:48;8.50;99.90
20985;DHT22;10651;47.552;7.606;2024-03-06T18:57:14;8.50;99.90
20985;DHT22;10651;47.552;7.606;2024-03-06T19:00:00;8.50;99.90
20985;DHT22;10651;47.552;7.606;2024-03-06T19:06:24;8.50;99.90
20985;DHT22;10651;47.552;7.606;2024-03-06T19:12:44;8.50;99.90
20985;DHT22;10651;47.552;7.606;2024-03-06T19:22:35;8.50;99.90
20985;DHT22;10651;47.552;7.606;2024-03-06T19:42:02;8.50;99.90
20985;DHT22;10651;47.552;7.606;2024-03-06T20:11:06;8.30;99.90
20985;DHT22;10651;47.552;7.606;2024-03-06T20:13:33;8.20;99.90
20985;DHT22;10651;47.552;7.606;2024-03-06T20:19:00;8.10;99.90
20985;DHT22;10651;47.552;7.606;2024-03-06T20:21:25;8.30;99.90
20985;DHT22;10651;47.552;7.606;2024-03-06T20:23:51;8.30;99.90
20985;DHT22;10651;47.552;7.606;2024-03-06T20:26:17;8.30;99.90
20985;DHT22;10651;47.552;7.606;2024-03-06T20:28:43;8.40;99.90
20985;DHT22;10651;47.552;7.606;2024-03-06T20:34:11;8.40;99.90
20985;DHT22;10651;47.552;7.606;2024-03-06T20:39:18;8.30;99.90
20985;DHT22;10651;47.552;7.606;2024-03-06T20:41:46;8.40;99.90
20985;DHT22;10651;47.552;7.606;2024-03-06T20:44:12;8.40;99.90
20985;DHT22;10651;47.552;7.606;2024-03-06T20:46:41;8.40;99.90
20985;DHT22;10651;47.552;7.606;2024-03-06T20:49:08;8.30;99.90
20985;DHT22;10651;47.552;7.606;2024-03-06T20:51:34;8.30;99.90
20985;DHT22;10651;47.552;7.606;2024-03-06T20:54:00;8.40;99.90
20985;DHT22;10651;47.552;7.606;2024-03-06T20:56:29;8.30;99.90
20985;DHT22;10651;47.552;7.606;2024-03-06T20:59:22;8.30;99.90
20985;DHT22;10651;47.552;7.606;2024-03-06T21:05:12;8.30;99.90
20985;DHT22;10651;47.552;7.606;2024-03-06T21:07:38;8.20;99.90
20985;DHT22;10651;47.552;7.606;2024-03-06T21:10:04;8.10;99.90
20985;DHT22;10651;47.552;7.606;2024-03-06T21:12:30;8.20;99.90
20985;DHT22;10651;47.552;7.606;2024-03-06T21:14:59;8.30;99.90
20985;DHT22;10651;47.552;7.606;2024-03-06T21:17:25;8.30;99.90
20985;DHT22;10651;47.552;7.606;2024-03-06T21:19:51;8.30;99.90
20985;DHT22;10651;47.552;7.606;2024-03-06T21:22:18;8.30;99.90
20985;DHT22;10651;47.552;7.606;2024-03-06T21:24:51;8.30;99.90
20985;DHT22;10651;47.552;7.606;2024-03-06T21:27:17;8.20;99.90
20985;DHT22;10651;47.552;7.606;2024-03-06T21:29:46;8.20;99.90
20985;DHT22;10651;47.552;7.606;2024-03-06T21:32:13;8.20;99.90
20985;DHT22;10651;47.552;7.606;2024-03-06T21:34:40;8.20;99.90
20985;DHT22;10651;47.552;7.606;2024-03-06T21:37:08;8.20;99.90
20985;DHT22;10651;47.552;7.606;2024-03-06T21:39:35;8.20;99.90
20985;DHT22;10651;47.552;7.606;2024-03-06T21:42:01;8.20;99.90
20985;DHT22;10651;47.552;7.606;2024-03-06T21:44:27;8.20;99.90
20985;DHT22;10651;47.552;7.606;2024-03-06T21:46:54;8.30;99.90
20985;DHT22;10651;47.552;7.606;2024-03-06T21:49:20;8.20;99.90
20985;DHT22;10651;47.552;7.606;2024-03-06T21:51:45;8.20;99.90
20985;DHT22;10651;47.552;7.606;2024-03-06T21:54:11;8.30;99.90
20985;DHT22;10651;47.552;7.606;2024-03-06T21:56:37;8.20;99.90
20985;DHT22;10651;47.552;7.606;2024-03-06T21:59:04;8.20;99.90
20985;DHT22;10651;47.552;7.606;2024-03-06T22:01:30;8.10;99.90
20985;DHT22;10651;47.552;7.606;2024-03-06T22:03:55;8.10;99.90
20985;DHT22;10651;47.552;7.606;2024-03-06T22:06:21;8.10;99.90
20985;DHT22;10651;47.552;7.606;2024-03-06T22:08:50;8.20;99.90
20985;DHT22;10651;47.552;7.606;2024-03-06T22:11:21;8.10;99.90
20985;DHT22;10651;47.552;7.606;2024-03-06T22:13:46;8.10;99.90
20985;DHT22;10651;47.552;7.606;2024-03-06T22:16:12;8.20;99.90
20985;DHT22;10651;47.552;7.606;2024-03-06T22:19:02;8.20;99.90
20985;DHT22;10651;47.552;7.606;2024-03-06T22:21:31;8.20;99.90
20985;DHT22;10651;47.552;7.606;2024-03-06T22:24:00;8.10;99.90
20985;DHT22;10651;47.552;7.606;2024-03-06T22:26:28;8.20;99.90
20985;DHT22;10651;47.552;7.606;2024-03-06T22:28:54;8.10;99.90
20985;DHT22;10651;47.552;7.606;2024-03-06T22:31:25;8.10;99.90
20985;DHT22;10651;47.552;7.606;2024-03-06T22:33:56;8.20;99.90
20985;DHT22;10651;47.552;7.606;2024-03-06T22:36:26;8.20;99.90
20985;DHT22;10651;47.552;7.606;2024-03-06T22:42:07;8.20;99.90
20985;DHT22;10651;47.552;7.606;2024-03-06T22:44:33;8.20;99.90
20985;DHT22;10651;47.552;7.606;2024-03-06T22:46:59;8.20;99.90
20985;DHT22;10651;47.552;7.606;2024-03-06T22:49:27;8.20;99.90
20985;DHT22;10651;47.552;7.606;2024-03-06T22:51:53;8.20;99.90
20985;DHT22;10651;47.552;7.606;2024-03-06T22:54:19;8.20;99.90
20985;DHT22;10651;47.552;7.606;2024-03-06T22:56:46;8.20;99.90
20985;DHT22;10651;47.552;7.606;2024-03-06T22:59:15;8.10;99.90
20985;DHT22;10651;47.552;7.606;2024-03-06T23:01:51;8.10;99.90
20985;DHT22;10651;47.552;7.606;2024-03-06T23:04:17;8.10;99.90
20985;DHT22;10651;47.552;7.606;2024-03-06T23:06:43;8.10;99.90
20985;DHT22;10651;47.552;7.606;2024-03-06T23:09:12;8.20;99.90
20985;DHT22;10651;47.552;7.606;2024-03-06T23:11:39;8.20;99.90
20985;DHT22;10651;47.552;7.606;2024-03-06T23:14:11;8.10;99.90
20985;DHT22;10651;47.552;7.606;2024-03-06T23:16:37;8.10;99.90
20985;DHT22;10651;47.552;7.606;2024-03-06T23:19:49;8.10;99.90
